sensor_id;sensor_type;location;lat;lon;timestamp;temperature;humidity
35668;DHT22;22158;59.280;17.806;2023-03-23T05:00:47;4.10;99.90
35668;DHT22;22158;59.280;17.806;2023-03-23T05:03:19;4.00;99.90
35668;DHT22;22158;59.280;17.806;2023-03-23T05:05:46;4.00;99.90
35668;DHT22;22158;59.280;17.806;2023-03-23T05:08:22;4.10;99.90
35668;DHT22;22158;59.280;17.806;2023-03-23T05:10:53;4.10;99.90
35668;DHT22;22158;59.280;17.806;2023-03-23T05:13:19;4.10;99.90
35668;DHT22;22158;59.280;17.806;2023-03-23T05:15:44;4.10;99.90
35668;DHT22;22158;59.280;17.806;2023-03-23T05:18:10;4.10;99.90
35668;DHT22;22158;59.280;17.806;2023-03-23T05:20:36;4.20;99.90
35668;DHT22;22158;59.280;17.806;2023-03-23T05:23:02;4.20;99.90
35668;DHT22;22158;59.280;17.806;2023-03-23T05:25:28;4.20;99.90
35668;DHT22;22158;59.280;17.806;2023-03-23T05:27:53;4.20;99.90
35668;DHT22;22158;59.280;17.806;2023-03-23T05:30:20;4.20;99.90
35668;DHT22;22158;59.280;17.806;2023-03-23T05:32:50;4.20;99.90
35668;DHT22;22158;59.280;17.806;2023-03-23T05:35:19;4.30;99.90
35668;DHT22;22158;59.280;17.806;2023-03-23T05:37:45;4.30;99.90
35668;DHT22;22158;59.280;17.806;2023-03-23T05:40:12;4.30;99.90
35668;DHT22;22158;59.280;17.806;2023-03-23T05:42:39;4.40;99.90
35668;DHT22;22158;59.280;17.806;2023-03-23T05:45:08;4.40;99.90
35668;DHT22;22158;59.280;17.806;2023-03-23T05:47:34;4.40;99.90
35668;DHT22;22158;59.280;17.806;2023-03-23T05:50:00;4.50;99.90
35668;DHT22;22158;59.280;17.806;2023-03-23T05:52:26;4.50;99.90
35668;DHT22;22158;59.280;17.806;2023-03-23T05:54:53;4.50;99.90
35668;DHT22;22158;59.280;17.806;2023-03-23T05:57:19;4.60;99.90
35668;DHT22;22158;59.280;17.806;2023-03-23T05:59:47;4.60;99.90
35668;DHT22;22158;59.280;17.806;2023-03-23T06:02:13;4.70;99.90
35668;DHT22;22158;59.280;17.806;2023-03-23T06:04:39;4.70;99.90
35668;DHT22;22158;59.280;17.806;2023-03-23T06:07:07;4.70;99.90
35668;DHT22;22158;59.280;17.806;2023-03-23T06:09:32;4.80;99.90
35668;DHT22;22158;59.280;17.806;2023-03-23T06:11:58;4.80;99.90
35668;DHT22;22158;59.280;17.806;2023-03-23T06:14:24;4.80;99.90
35668;DHT22;22158;59.280;17.806;2023-03-23T06:16:49;4.90;99.90
35668;DHT22;22158;59.280;17.806;2023-03-23T06:19:15;4.90;99.90
35668;DHT22;22158;59.280;17.806;2023-03-23T06:21:42;5.00;99.90
35668;DHT22;22158;59.280;17.806;2023-03-23T06:24:08;5.00;99.90
35668;DHT22;22158;59.280;17.806;2023-03-23T06:26:36;5.10;99.90
35668;DHT22;22158;59.280;17.806;2023-03-23T06:29:03;5.10;99.90
35668;DHT22;22158;59.280;17.806;2023-03-23T06:31:41;5.10;99.90
35668;DHT22;22158;59.280;17.806;2023-03-23T06:34:08;5.20;99.90
35668;DHT22;22158;59.280;17.806;2023-03-23T06:36:35;5.20;99.90
35668;DHT22;22158;59.280;17.806;2023-03-23T06:39:02;5.30;99.90
35668;DHT22;22158;59.280;17.806;2023-03-23T06:41:30;5.30;99.90
35668;DHT22;22158;59.280;17.806;2023-03-23T06:43:55;5.40;99.90
35668;DHT22;22158;59.280;17.806;2023-03-23T06:46:21;5.50;99.90
35668;DHT22;22158;59.280;17.806;2023-03-23T06:48:47;5.50;99.90
35668;DHT22;22158;59.280;17.806;2023-03-23T06:51:15;5.60;99.90
35668;DHT22;22158;59.280;17.806;2023-03-23T06:53:41;5.60;99.90
35668;DHT22;22158;59.280;17.806;2023-03-23T06:56:06;5.60;99.90
35668;DHT22;22158;59.280;17.806;2023-03-23T06:58:32;5.70;99.90
35668;DHT22;22158;59.280;17.806;2023-03-23T07:00:58;5.70;99.90
35668;DHT22;22158;59.280;17.806;2023-03-23T07:03:24;5.80;99.90
35668;DHT22;22158;59.280;17.806;2023-03-23T07:05:54;5.90;99.90
35668;DHT22;22158;59.280;17.806;2023-03-23T07:08:22;5.90;99.90
35668;DHT22;22158;59.280;17.806;2023-03-23T07:10:51;6.00;99.90
35668;DHT22;22158;59.280;17.806;2023-03-23T07:13:23;6.00;99.90
35668;DHT22;22158;59.280;17.806;2023-03-23T07:15:49;6.10;99.90
35668;DHT22;22158;59.280;17.806;2023-03-23T07:18:16;6.10;99.90
35668;DHT22;22158;59.280;17.806;2023-03-23T07:20:41;6.20;99.90
35668;DHT22;22158;59.280;17.806;2023-03-23T07:23:08;6.20;99.90
35668;DHT22;22158;59.280;17.806;2023-03-23T07:25:34;6.20;99.90
35668;DHT22;22158;59.280;17.806;2023-03-23T07:28:02;6.30;99.90
35668;DHT22;22158;59.280;17.806;2023-03-23T07:30:28;6.40;99.90
35668;DHT22;22158;59.280;17.806;2023-03-23T07:32:57;6.40;99.90
35668;DHT22;22158;59.280;17.806;2023-03-23T07:35:24;6.50;99.90
35668;DHT22;22158;59.280;17.806;2023-03-23T07:37:50;6.50;99.90
35668;DHT22;22158;59.280;17.806;2023-03-23T07:40:17;6.60;99.90
35668;DHT22;22158;59.280;17.806;2023-03-23T07:42:52;6.70;99.90
35668;DHT22;22158;59.280;17.806;2023-03-23T07:45:18;6.70;99.90
35668;DHT22;22158;59.280;17.806;2023-03-23T07:47:43;6.80;99.90
35668;DHT22;22158;59.280;17.806;2023-03-23T07:50:10;6.90;99.90
35668;DHT22;22158;59.280;17.806;2023-03-23T07:52:36;6.90;99.90
35668;DHT22;22158;59.280;17.806;2023-03-23T07:55:04;7.00;99.90
35668;DHT22;22158;59.280;17.806;2023-03-23T07:57:30;7.10;99.90
35668;DHT22;22158;59.280;17.806;2023-03-23T07:59:56;7.10;99.90
35668;DHT22;22158;59.280;17.806;2023-03-23T08:02:22;7.10;99.90
35668;DHT22;22158;59.280;17.806;2023-03-23T08:04:48;7.20;99.90
35668;DHT22;22158;59.280;17.806;2023-03-23T08:07:14;7.30;99.90
35668;DHT22;22158;59.280;17.806;2023-03-23T08:09:42;7.40;99.90
35668;DHT22;22158;59.280;17.806;2023-03-23T08:12:07;7.50;99.90
35668;DHT22;22158;59.280;17.806;2023-03-23T08:14:33;7.50;99.90
35668;DHT22;22158;59.280;17.806;2023-03-23T08:16:59;7.60;99.90
35668;DHT22;22158;59.280;17.806;2023-03-23T08:19:25;7.70;99.90
35668;DHT22;22158;59.280;17.806;2023-03-23T08:21:51;7.70;99.90
35668;DHT22;22158;59.280;17.806;2023-03-23T08:24:17;7.90;99.90
35668;DHT22;22158;59.280;17.806;2023-03-23T08:26:44;7.90;99.90
35668;DHT22;22158;59.280;17.806;2023-03-23T08:29:09;7.90;99.90
35668;DHT22;22158;59.280;17.806;2023-03-23T08:31:35;8.00;99.90
35668;DHT22;22158;59.280;17.806;2023-03-23T08:34:03;8.10;99.90
35668;DHT22;22158;59.280;17.806;2023-03-23T08:36:31;8.10;99.90
35668;DHT22;22158;59.280;17.806;2023-03-23T08:38:57;8.20;99.90
35668;DHT22;22158;59.280;17.806;2023-03-23T08:41:23;8.40;99.90
35668;DHT22;22158;59.280;17.806;2023-03-23T08:43:49;8.40;99.90
35668;DHT22;22158;59.280;17.806;2023-03-23T08:46:15;8.40;99.90
35668;DHT22;22158;59.280;17.806;2023-03-23T08:48:42;8.50;99.90
35668;DHT22;22158;59.280;17.806;2023-03-23T08:51:09;8.60;99.90
35668;DHT22;22158;59.280;17.806;2023-03-23T08:53:35;8.70;99.90
35668;DHT22;22158;59.280;17.806;2023-03-23T08:56:10;8.70;99.90
35668;DHT22;22158;59.280;17.806;2023-03-23T08:58:38;8.80;99.90
35668;DHT22;22158;59.280;17.806;2023-03-23T09:01:05;8.90;99.90
35668;DHT22;22158;59.280;17.806;2023-03-23T09:03:32;9.00;99.90
35668;DHT22;22158;59.280;17.806;2023-03-23T09:06:03;9.00;99.90
35668;DHT22;22158;59.280;17.806;2023-03-23T09:08:29;9.20;99.90
35668;DHT22;22158;59.280;17.806;2023-03-23T09:10:59;9.20;99.90
35668;DHT22;22158;59.280;17.806;2023-03-23T09:13:24;9.20;99.90
35668;DHT22;22158;59.280;17.806;2023-03-23T09:15:50;9.20;99.90
35668;DHT22;22158;59.280;17.806;2023-03-23T09:18:17;9.20;99.90
35668;DHT22;22158;59.280;17.806;2023-03-23T09:20:44;9.20;99.90
35668;DHT22;22158;59.280;17.806;2023-03-23T09:23:09;9.30;99.90
35668;DHT22;22158;59.280;17.806;2023-03-23T09:25:35;9.30;99.90
35668;DHT22;22158;59.280;17.806;2023-03-23T09:28:01;9.40;99.90
35668;DHT22;22158;59.280;17.806;2023-03-23T09:30:29;9.40;99.90
35668;DHT22;22158;59.280;17.806;2023-03-23T09:32:56;9.50;99.90
35668;DHT22;22158;59.280;17.806;2023-03-23T09:35:23;9.60;99.90
35668;DHT22;22158;59.280;17.806;2023-03-23T09:37:50;9.70;99.90
35668;DHT22;22158;59.280;17.806;2023-03-23T09:40:53;9.80;99.90
35668;DHT22;22158;59.280;17.806;2023-03-23T09:43:27;9.80;99.90
35668;DHT22;22158;59.280;17.806;2023-03-23T09:49:27;9.90;99.90
35668;DHT22;22158;59.280;17.806;2023-03-23T09:52:00;10.10;99.90
35668;DHT22;22158;59.280;17.806;2023-03-23T09:54:40;10.20;99.90
35668;DHT22;22158;59.280;17.806;2023-03-23T10:03:10;10.40;99.90
35668;DHT22;22158;59.280;17.806;2023-03-23T10:08:11;10.50;99.90
35668;DHT22;22158;59.280;17.806;2023-03-23T10:15:59;10.80;99.90
35668;DHT22;22158;59.280;17.806;2023-03-23T10:21:13;10.90;99.90
35668;DHT22;22158;59.280;17.806;2023-03-23T10:24:00;11.00;99.90
35668;DHT22;22158;59.280;17.806;2023-03-23T10:26:51;11.00;99.90
35668;DHT22;22158;59.280;17.806;2023-03-23T10:31:51;11.00;99.20
35668;DHT22;22158;59.280;17.806;2023-03-23T10:34:25;11.00;99.90
35668;DHT22;22158;59.280;17.806;2023-03-23T10:37:36;11.00;99.50
35668;DHT22;22158;59.280;17.806;2023-03-23T10:40:03;11.10;99.10
35668;DHT22;22158;59.280;17.806;2023-03-23T10:42:36;11.20;99.60
35668;DHT22;22158;59.280;17.806;2023-03-23T10:47:42;11.40;99.10
35668;DHT22;22158;59.280;17.806;2023-03-23T10:50:15;11.40;98.80
35668;DHT22;22158;59.280;17.806;2023-03-23T10:52:42;11.50;98.50
35668;DHT22;22158;59.280;17.806;2023-03-23T10:55:16;11.50;98.60
35668;DHT22;22158;59.280;17.806;2023-03-23T10:57:57;11.60;98.30
35668;DHT22;22158;59.280;17.806;2023-03-23T11:00:24;11.60;98.00
35668;DHT22;22158;59.280;17.806;2023-03-23T11:03:17;11.70;98.40
35668;DHT22;22158;59.280;17.806;2023-03-23T11:05:52;11.90;98.20
35668;DHT22;22158;59.280;17.806;2023-03-23T11:08:23;12.00;97.60
35668;DHT22;22158;59.280;17.806;2023-03-23T11:10:57;12.00;97.30
35668;DHT22;22158;59.280;17.806;2023-03-23T11:13:30;12.00;98.20
35668;DHT22;22158;59.280;17.806;2023-03-23T11:15:56;12.00;97.20
35668;DHT22;22158;59.280;17.806;2023-03-23T11:18:34;12.10;97.90
35668;DHT22;22158;59.280;17.806;2023-03-23T11:21:02;12.20;97.60
35668;DHT22;22158;59.280;17.806;2023-03-23T11:23:40;12.10;97.60
35668;DHT22;22158;59.280;17.806;2023-03-23T11:26:27;12.20;97.10
35668;DHT22;22158;59.280;17.806;2023-03-23T11:31:42;12.30;96.50
35668;DHT22;22158;59.280;17.806;2023-03-23T11:34:31;12.40;96.30
35668;DHT22;22158;59.280;17.806;2023-03-23T11:37:03;12.40;96.60
35668;DHT22;22158;59.280;17.806;2023-03-23T11:39:31;12.50;97.80
35668;DHT22;22158;59.280;17.806;2023-03-23T11:42:11;12.50;96.50
35668;DHT22;22158;59.280;17.806;2023-03-23T11:44:42;12.40;96.50
35668;DHT22;22158;59.280;17.806;2023-03-23T11:47:37;12.40;96.50
35668;DHT22;22158;59.280;17.806;2023-03-23T11:50:25;12.40;96.80
35668;DHT22;22158;59.280;17.806;2023-03-23T11:58:15;12.40;95.30
35668;DHT22;22158;59.280;17.806;2023-03-23T12:00:55;12.50;95.10
35668;DHT22;22158;59.280;17.806;2023-03-23T12:03:22;12.60;95.30
35668;DHT22;22158;59.280;17.806;2023-03-23T12:05:56;12.50;95.10
35668;DHT22;22158;59.280;17.806;2023-03-23T12:16:59;12.60;95.60
35668;DHT22;22158;59.280;17.806;2023-03-23T12:30:53;12.40;95.60
35668;DHT22;22158;59.280;17.806;2023-03-23T12:36:18;12.70;94.60
35668;DHT22;22158;59.280;17.806;2023-03-23T12:39:11;12.70;95.80
35668;DHT22;22158;59.280;17.806;2023-03-23T12:41:53;12.90;94.20
35668;DHT22;22158;59.280;17.806;2023-03-23T12:44:35;12.80;93.90
35668;DHT22;22158;59.280;17.806;2023-03-23T12:50:31;13.10;94.80
35668;DHT22;22158;59.280;17.806;2023-03-23T12:55:21;13.60;93.60
35668;DHT22;22158;59.280;17.806;2023-03-23T12:58:02;13.80;92.00
35668;DHT22;22158;59.280;17.806;2023-03-23T13:05:54;14.30;91.20
35668;DHT22;22158;59.280;17.806;2023-03-23T13:09:05;14.40;91.50
35668;DHT22;22158;59.280;17.806;2023-03-23T13:11:37;14.60;90.50
35668;DHT22;22158;59.280;17.806;2023-03-23T13:14:09;14.70;91.20
35668;DHT22;22158;59.280;17.806;2023-03-23T13:16:48;14.80;91.20
35668;DHT22;22158;59.280;17.806;2023-03-23T13:19:26;14.60;89.90
35668;DHT22;22158;59.280;17.806;2023-03-23T13:22:05;14.50;90.30
35668;DHT22;22158;59.280;17.806;2023-03-23T13:24:36;14.40;90.20
35668;DHT22;22158;59.280;17.806;2023-03-23T13:27:04;14.30;89.80
35668;DHT22;22158;59.280;17.806;2023-03-23T13:29:32;14.20;90.70
35668;DHT22;22158;59.280;17.806;2023-03-23T13:32:18;14.10;90.60
35668;DHT22;22158;59.280;17.806;2023-03-23T13:34:46;14.00;91.30
35668;DHT22;22158;59.280;17.806;2023-03-23T13:42:23;14.00;92.50
35668;DHT22;22158;59.280;17.806;2023-03-23T13:52:22;14.60;93.20
35668;DHT22;22158;59.280;17.806;2023-03-23T13:54:49;14.30;93.30
35668;DHT22;22158;59.280;17.806;2023-03-23T13:57:48;14.20;93.70
35668;DHT22;22158;59.280;17.806;2023-03-23T14:03:53;14.60;95.10
35668;DHT22;22158;59.280;17.806;2023-03-23T14:14:17;15.20;92.50
35668;DHT22;22158;59.280;17.806;2023-03-23T14:16:45;15.20;92.70
35668;DHT22;22158;59.280;17.806;2023-03-23T14:19:22;15.30;92.60
35668;DHT22;22158;59.280;17.806;2023-03-23T14:21:53;15.40;92.90
35668;DHT22;22158;59.280;17.806;2023-03-23T14:24:31;15.40;93.40
35668;DHT22;22158;59.280;17.806;2023-03-23T14:27:12;15.40;92.80
35668;DHT22;22158;59.280;17.806;2023-03-23T14:29:39;15.40;93.30
35668;DHT22;22158;59.280;17.806;2023-03-23T14:32:08;15.30;93.40
35668;DHT22;22158;59.280;17.806;2023-03-23T14:34:36;15.40;92.70
35668;DHT22;22158;59.280;17.806;2023-03-23T14:37:02;15.50;92.40
35668;DHT22;22158;59.280;17.806;2023-03-23T14:39:33;15.50;92.70
35668;DHT22;22158;59.280;17.806;2023-03-23T14:42:06;15.50;93.00
35668;DHT22;22158;59.280;17.806;2023-03-23T14:44:37;15.60;93.00
35668;DHT22;22158;59.280;17.806;2023-03-23T14:47:08;15.70;92.20
35668;DHT22;22158;59.280;17.806;2023-03-23T14:49:38;15.70;93.00
35668;DHT22;22158;59.280;17.806;2023-03-23T14:52:13;15.90;92.90
35668;DHT22;22158;59.280;17.806;2023-03-23T14:54:40;15.90;92.40
35668;DHT22;22158;59.280;17.806;2023-03-23T14:59:49;15.70;92.50
35668;DHT22;22158;59.280;17.806;2023-03-23T15:02:20;15.70;92.70
35668;DHT22;22158;59.280;17.806;2023-03-23T15:04:49;15.70;93.30
35668;DHT22;22158;59.280;17.806;2023-03-23T15:07:16;15.80;92.70
35668;DHT22;22158;59.280;17.806;2023-03-23T15:09:44;15.70;92.70
35668;DHT22;22158;59.280;17.806;2023-03-23T15:12:24;15.40;92.70
35668;DHT22;22158;59.280;17.806;2023-03-23T15:14:58;15.30;93.00
35668;DHT22;22158;59.280;17.806;2023-03-23T15:17:27;15.30;93.10
35668;DHT22;22158;59.280;17.806;2023-03-23T15:19:54;14.90;92.60
35668;DHT22;22158;59.280;17.806;2023-03-23T15:22:29;14.50;93.40
35668;DHT22;22158;59.280;17.806;2023-03-23T15:27:58;13.80;95.00
35668;DHT22;22158;59.280;17.806;2023-03-23T15:32:54;13.60;94.40
35668;DHT22;22158;59.280;17.806;2023-03-23T15:35:23;13.40;95.00
35668;DHT22;22158;59.280;17.806;2023-03-23T15:37:58;13.40;94.70
35668;DHT22;22158;59.280;17.806;2023-03-23T15:40:26;13.40;94.90
35668;DHT22;22158;59.280;17.806;2023-03-23T15:43:18;13.20;95.20
35668;DHT22;22158;59.280;17.806;2023-03-23T15:46:21;13.20;95.20
35668;DHT22;22158;59.280;17.806;2023-03-23T15:48:52;12.80;95.60
35668;DHT22;22158;59.280;17.806;2023-03-23T15:51:21;12.70;96.00
35668;DHT22;22158;59.280;17.806;2023-03-23T15:53:50;12.50;96.30
35668;DHT22;22158;59.280;17.806;2023-03-23T15:56:16;12.10;97.10
35668;DHT22;22158;59.280;17.806;2023-03-23T15:58:42;11.80;98.30
35668;DHT22;22158;59.280;17.806;2023-03-23T16:03:55;11.40;98.50
35668;DHT22;22158;59.280;17.806;2023-03-23T16:06:23;11.20;98.90
35668;DHT22;22158;59.280;17.806;2023-03-23T16:08:50;11.00;98.90
35668;DHT22;22158;59.280;17.806;2023-03-23T16:11:18;10.90;99.20
35668;DHT22;22158;59.280;17.806;2023-03-23T16:13:44;10.80;99.50
35668;DHT22;22158;59.280;17.806;2023-03-23T16:16:33;10.70;99.80
35668;DHT22;22158;59.280;17.806;2023-03-23T16:18:59;10.50;99.90
35668;DHT22;22158;59.280;17.806;2023-03-23T16:21:25;10.40;99.90
35668;DHT22;22158;59.280;17.806;2023-03-23T16:23:51;10.20;99.90
35668;DHT22;22158;59.280;17.806;2023-03-23T16:26:17;10.10;99.90
35668;DHT22;22158;59.280;17.806;2023-03-23T16:28:43;10.00;99.90
35668;DHT22;22158;59.280;17.806;2023-03-23T16:31:11;9.90;99.90
35668;DHT22;22158;59.280;17.806;2023-03-23T16:33:37;9.80;99.90
35668;DHT22;22158;59.280;17.806;2023-03-23T16:36:03;9.70;99.90
35668;DHT22;22158;59.280;17.806;2023-03-23T16:38:29;9.70;99.90
35668;DHT22;22158;59.280;17.806;2023-03-23T16:40:54;9.60;99.90
35668;DHT22;22158;59.280;17.806;2023-03-23T16:43:20;9.40;99.90
35668;DHT22;22158;59.280;17.806;2023-03-23T16:45:47;9.40;99.90
35668;DHT22;22158;59.280;17.806;2023-03-23T16:48:14;9.30;99.90
35668;DHT22;22158;59.280;17.806;2023-03-23T16:50:43;9.20;99.90
35668;DHT22;22158;59.280;17.806;2023-03-23T16:53:09;9.20;99.90
35668;DHT22;22158;59.280;17.806;2023-03-23T16:55:36;9.10;99.90
35668;DHT22;22158;59.280;17.806;2023-03-23T16:58:02;9.10;99.90
35668;DHT22;22158;59.280;17.806;2023-03-23T17:00:28;9.10;99.90
35668;DHT22;22158;59.280;17.806;2023-03-23T17:02:54;9.00;99.90
35668;DHT22;22158;59.280;17.806;2023-03-23T17:05:23;8.90;99.90
35668;DHT22;22158;59.280;17.806;2023-03-23T17:07:50;8.90;99.90
35668;DHT22;22158;59.280;17.806;2023-03-23T17:10:16;8.90;99.90
35668;DHT22;22158;59.280;17.806;2023-03-23T17:12:42;8.80;99.90
35668;DHT22;22158;59.280;17.806;2023-03-23T17:15:09;8.80;99.90
35668;DHT22;22158;59.280;17.806;2023-03-23T17:17:35;8.70;99.90
35668;DHT22;22158;59.280;17.806;2023-03-23T17:20:01;8.60;99.90
35668;DHT22;22158;59.280;17.806;2023-03-23T17:22:27;8.60;99.90
35668;DHT22;22158;59.280;17.806;2023-03-23T17:24:53;8.60;99.90
35668;DHT22;22158;59.280;17.806;2023-03-23T17:27:21;8.60;99.90
35668;DHT22;22158;59.280;17.806;2023-03-23T17:29:46;8.50;99.90
35668;DHT22;22158;59.280;17.806;2023-03-23T17:32:13;8.50;99.90
35668;DHT22;22158;59.280;17.806;2023-03-23T17:34:39;8.30;99.90
35668;DHT22;22158;59.280;17.806;2023-03-23T17:37:05;8.30;99.90
35668;DHT22;22158;59.280;17.806;2023-03-23T17:39:31;8.20;99.90
35668;DHT22;22158;59.280;17.806;2023-03-23T17:41:58;8.20;99.90
35668;DHT22;22158;59.280;17.806;2023-03-23T17:44:24;8.20;99.90
35668;DHT22;22158;59.280;17.806;2023-03-23T17:46:50;8.10;99.90
35668;DHT22;22158;59.280;17.806;2023-03-23T17:49:16;8.10;99.90
35668;DHT22;22158;59.280;17.806;2023-03-23T17:51:42;8.10;99.90
35668;DHT22;22158;59.280;17.806;2023-03-23T17:54:08;8.00;99.90
35668;DHT22;22158;59.280;17.806;2023-03-23T17:56:34;7.90;99.90
35668;DHT22;22158;59.280;17.806;2023-03-23T17:58:59;8.00;99.90
35668;DHT22;22158;59.280;17.806;2023-03-23T18:01:25;7.90;99.90
35668;DHT22;22158;59.280;17.806;2023-03-23T18:03:50;7.80;99.90
35668;DHT22;22158;59.280;17.806;2023-03-23T18:06:17;7.80;99.90
35668;DHT22;22158;59.280;17.806;2023-03-23T18:08:42;7.70;99.90
35668;DHT22;22158;59.280;17.806;2023-03-23T18:11:08;7.60;99.90
35668;DHT22;22158;59.280;17.806;2023-03-23T18:13:35;7.70;99.90
35668;DHT22;22158;59.280;17.806;2023-03-23T18:16:01;7.60;99.90
35668;DHT22;22158;59.280;17.806;2023-03-23T18:18:28;7.60;99.90
35668;DHT22;22158;59.280;17.806;2023-03-23T18:21:03;7.50;99.90
35668;DHT22;22158;59.280;17.806;2023-03-23T18:23:30;7.30;99.90
35668;DHT22;22158;59.280;17.806;2023-03-23T18:26:01;7.30;99.90
35668;DHT22;22158;59.280;17.806;2023-03-23T18:28:26;7.40;99.90
35668;DHT22;22158;59.280;17.806;2023-03-23T18:30:52;7.40;99.90
35668;DHT22;22158;59.280;17.806;2023-03-23T18:33:20;7.30;99.90
35668;DHT22;22158;59.280;17.806;2023-03-23T18:35:46;7.20;99.90
35668;DHT22;22158;59.280;17.806;2023-03-23T18:38:12;7.20;99.90
35668;DHT22;22158;59.280;17.806;2023-03-23T18:40:43;7.10;99.90
35668;DHT22;22158;59.280;17.806;2023-03-23T18:43:09;7.00;99.90
35668;DHT22;22158;59.280;17.806;2023-03-23T18:45:35;6.80;99.90
35668;DHT22;22158;59.280;17.806;2023-03-23T18:48:02;6.80;99.90
35668;DHT22;22158;59.280;17.806;2023-03-23T18:50:28;6.90;99.90
35668;DHT22;22158;59.280;17.806;2023-03-23T18:52:53;6.90;99.90
35668;DHT22;22158;59.280;17.806;2023-03-23T18:55:19;6.90;99.90
35668;DHT22;22158;59.280;17.806;2023-03-23T18:57:45;6.80;99.90
35668;DHT22;22158;59.280;17.806;2023-03-23T19:00:10;6.70;99.90
35668;DHT22;22158;59.280;17.806;2023-03-23T19:02:36;6.60;99.90
35668;DHT22;22158;59.280;17.806;2023-03-23T19:05:05;6.50;99.90
35668;DHT22;22158;59.280;17.806;2023-03-23T19:07:31;6.50;99.90
35668;DHT22;22158;59.280;17.806;2023-03-23T19:09:56;6.50;99.90
35668;DHT22;22158;59.280;17.806;2023-03-23T19:12:22;6.50;99.90
35668;DHT22;22158;59.280;17.806;2023-03-23T19:14:48;6.50;99.90
35668;DHT22;22158;59.280;17.806;2023-03-23T19:17:13;6.40;99.90
35668;DHT22;22158;59.280;17.806;2023-03-23T19:19:39;6.40;99.90
35668;DHT22;22158;59.280;17.806;2023-03-23T19:22:06;6.40;99.90
35668;DHT22;22158;59.280;17.806;2023-03-23T19:24:33;6.30;99.90
35668;DHT22;22158;59.280;17.806;2023-03-23T19:26:59;6.30;99.90
35668;DHT22;22158;59.280;17.806;2023-03-23T19:29:25;6.20;99.90
35668;DHT22;22158;59.280;17.806;2023-03-23T19:31:52;6.20;99.90
35668;DHT22;22158;59.280;17.806;2023-03-23T19:34:17;6.20;99.90
35668;DHT22;22158;59.280;17.806;2023-03-23T19:36:43;6.20;99.90
35668;DHT22;22158;59.280;17.806;2023-03-23T19:39:09;6.20;99.90
35668;DHT22;22158;59.280;17.806;2023-03-23T19:41:36;6.10;99.90
35668;DHT22;22158;59.280;17.806;2023-03-23T19:44:05;6.10;99.90
35668;DHT22;22158;59.280;17.806;2023-03-23T19:46:31;6.10;99.90
35668;DHT22;22158;59.280;17.806;2023-03-23T19:48:57;6.00;99.90
35668;DHT22;22158;59.280;17.806;2023-03-23T19:51:23;6.00;99.90
35668;DHT22;22158;59.280;17.806;2023-03-23T19:53:48;6.10;99.90
35668;DHT22;22158;59.280;17.806;2023-03-23T19:56:16;6.10;99.90
35668;DHT22;22158;59.280;17.806;2023-03-23T19:58:43;6.00;99.90
35668;DHT22;22158;59.280;17.806;2023-03-23T20:01:08;6.00;99.90
35668;DHT22;22158;59.280;17.806;2023-03-23T20:03:34;6.00;99.90
35668;DHT22;22158;59.280;17.806;2023-03-23T20:06:01;6.00;99.90
35668;DHT22;22158;59.280;17.806;2023-03-23T20:08:29;6.00;99.90
35668;DHT22;22158;59.280;17.806;2023-03-23T20:11:06;5.90;99.90
35668;DHT22;22158;59.280;17.806;2023-03-23T20:13:31;5.90;99.90
35668;DHT22;22158;59.280;17.806;2023-03-23T20:15:57;5.90;99.90
35668;DHT22;22158;59.280;17.806;2023-03-23T20:18:26;5.90;99.90
35668;DHT22;22158;59.280;17.806;2023-03-23T20:21:02;5.90;99.90
35668;DHT22;22158;59.280;17.806;2023-03-23T20:23:28;5.90;99.90
35668;DHT22;22158;59.280;17.806;2023-03-23T20:25:57;5.90;99.90
35668;DHT22;22158;59.280;17.806;2023-03-23T20:28:23;5.90;99.90
35668;DHT22;22158;59.280;17.806;2023-03-23T20:33:30;5.90;99.90
35668;DHT22;22158;59.280;17.806;2023-03-23T20:35:56;5.90;99.90
35668;DHT22;22158;59.280;17.806;2023-03-23T20:38:23;6.00;99.90
35668;DHT22;22158;59.280;17.806;2023-03-23T20:40:49;5.90;99.90
35668;DHT22;22158;59.280;17.806;2023-03-23T20:43:15;6.00;99.90
35668;DHT22;22158;59.280;17.806;2023-03-23T20:45:41;6.00;99.90
35668;DHT22;22158;59.280;17.806;2023-03-23T20:48:07;6.00;99.90
35668;DHT22;22158;59.280;17.806;2023-03-23T20:50:34;6.10;99.90
35668;DHT22;22158;59.280;17.806;2023-03-23T20:52:59;6.10;99.90
35668;DHT22;22158;59.280;17.806;2023-03-23T20:55:25;6.10;99.90
35668;DHT22;22158;59.280;17.806;2023-03-23T20:57:52;6.20;99.90
35668;DHT22;22158;59.280;17.806;2023-03-23T21:00:17;6.20;99.90
35668;DHT22;22158;59.280;17.806;2023-03-23T21:02:43;6.20;99.90
35668;DHT22;22158;59.280;17.806;2023-03-23T21:05:09;6.20;99.90
35668;DHT22;22158;59.280;17.806;2023-03-23T21:07:35;6.20;99.90
35668;DHT22;22158;59.280;17.806;2023-03-23T21:10:02;6.20;99.90
35668;DHT22;22158;59.280;17.806;2023-03-23T21:12:28;6.30;99.90
35668;DHT22;22158;59.280;17.806;2023-03-23T21:14:53;6.30;99.90
35668;DHT22;22158;59.280;17.806;2023-03-23T21:17:19;6.30;99.90
35668;DHT22;22158;59.280;17.806;2023-03-23T21:19:45;6.40;99.90
35668;DHT22;22158;59.280;17.806;2023-03-23T21:22:11;6.40;99.90
35668;DHT22;22158;59.280;17.806;2023-03-23T21:24:39;6.50;99.90
35668;DHT22;22158;59.280;17.806;2023-03-23T21:27:05;6.50;99.90
35668;DHT22;22158;59.280;17.806;2023-03-23T21:29:31;6.50;99.90
35668;DHT22;22158;59.280;17.806;2023-03-23T21:31:57;6.50;99.90
35668;DHT22;22158;59.280;17.806;2023-03-23T21:34:23;6.50;99.90
35668;DHT22;22158;59.280;17.806;2023-03-23T21:36:48;6.50;99.90
35668;DHT22;22158;59.280;17.806;2023-03-23T21:39:14;6.50;99.90
35668;DHT22;22158;59.280;17.806;2023-03-23T21:41:40;6.60;99.90
35668;DHT22;22158;59.280;17.806;2023-03-23T21:44:06;6.70;99.90
35668;DHT22;22158;59.280;17.806;2023-03-23T21:46:34;6.70;99.90
35668;DHT22;22158;59.280;17.806;2023-03-23T21:49:02;6.70;99.90
35668;DHT22;22158;59.280;17.806;2023-03-23T21:51:28;6.70;99.90
35668;DHT22;22158;59.280;17.806;2023-03-23T21:53:54;6.80;99.90
35668;DHT22;22158;59.280;17.806;2023-03-23T21:56:23;6.70;99.90
35668;DHT22;22158;59.280;17.806;2023-03-23T21:58:50;6.60;99.90
35668;DHT22;22158;59.280;17.806;2023-03-23T22:01:16;6.70;99.90
35668;DHT22;22158;59.280;17.806;2023-03-23T22:03:42;6.60;99.90
35668;DHT22;22158;59.280;17.806;2023-03-23T22:06:16;6.60;99.90
35668;DHT22;22158;59.280;17.806;2023-03-23T22:08:44;6.50;99.90
35668;DHT22;22158;59.280;17.806;2023-03-23T22:11:13;6.50;99.90
35668;DHT22;22158;59.280;17.806;2023-03-23T22:13:40;6.50;99.90
35668;DHT22;22158;59.280;17.806;2023-03-23T22:16:09;6.50;99.90
35668;DHT22;22158;59.280;17.806;2023-03-23T22:18:36;6.40;99.90
35668;DHT22;22158;59.280;17.806;2023-03-23T22:21:04;6.50;99.90